createdAt,value
2017-07-31T00:00:40.068Z,2.50
2017-07-31T00:01:37.380Z,2.90
2017-07-31T00:02:34.636Z,2.90
2017-07-31T00:03:31.934Z,2.80
2017-07-31T00:04:29.258Z,2.70
2017-07-31T00:05:26.642Z,2.40
2017-07-31T00:06:23.914Z,3.10
2017-07-31T00:07:21.555Z,2.70
2017-07-31T00:08:18.839Z,2.90
2017-07-31T00:09:16.201Z,3.50
2017-07-31T00:10:13.605Z,2.90
2017-07-31T00:11:10.890Z,3.70
2017-07-31T00:12:08.159Z,2.70
2017-07-31T00:13:05.425Z,2.90
2017-07-31T00:14:02.688Z,2.70
2017-07-31T00:14:59.987Z,2.90
2017-07-31T00:15:57.234Z,2.90
2017-07-31T00:16:54.526Z,2.90
2017-07-31T00:17:51.880Z,3.00
2017-07-31T00:18:49.177Z,2.50
2017-07-31T00:19:46.490Z,2.60
2017-07-31T00:20:43.821Z,2.50
2017-07-31T00:21:41.133Z,3.00
2017-07-31T00:22:38.506Z,3.40
2017-07-31T00:23:35.902Z,2.60
2017-07-31T00:24:33.264Z,3.20
2017-07-31T00:25:30.574Z,2.50
2017-07-31T00:26:27.984Z,2.70
2017-07-31T00:27:25.264Z,3.10
2017-07-31T00:28:22.710Z,2.80
2017-07-31T00:29:20.113Z,2.80
2017-07-31T00:30:17.477Z,2.70
2017-07-31T00:31:14.801Z,2.30
2017-07-31T00:32:12.163Z,2.50
2017-07-31T00:33:09.544Z,2.80
2017-07-31T00:34:07.070Z,2.90
2017-07-31T00:35:04.360Z,2.40
2017-07-31T00:36:01.829Z,2.60
2017-07-31T00:36:59.214Z,2.70
2017-07-31T00:37:56.502Z,2.70
2017-07-31T00:38:53.802Z,2.50
2017-07-31T00:39:51.113Z,2.80
2017-07-31T00:40:48.440Z,2.70
2017-07-31T00:41:45.765Z,3.60
2017-07-31T00:42:43.099Z,3.00
2017-07-31T00:43:40.519Z,3.30
2017-07-31T00:44:37.804Z,3.20
2017-07-31T00:45:35.107Z,3.30
2017-07-31T00:46:32.368Z,3.20
2017-07-31T00:47:29.712Z,2.80
2017-07-31T00:48:27.053Z,2.90
2017-07-31T00:49:24.406Z,3.50
2017-07-31T00:50:21.721Z,3.10
2017-07-31T00:51:19.108Z,3.30
2017-07-31T00:52:16.385Z,3.50
2017-07-31T00:53:13.749Z,3.50
2017-07-31T00:54:11.004Z,3.40
2017-07-31T00:55:08.288Z,3.20
2017-07-31T00:56:05.580Z,3.30
2017-07-31T00:57:02.949Z,3.50
2017-07-31T00:58:00.226Z,3.00
2017-07-31T00:58:57.502Z,3.90
2017-07-31T00:59:54.821Z,2.80
2017-07-31T01:00:52.164Z,3.10
2017-07-31T01:01:49.470Z,3.10
2017-07-31T01:02:46.817Z,2.80
2017-07-31T01:03:44.102Z,3.80
2017-07-31T01:04:41.399Z,3.30
2017-07-31T01:05:38.708Z,3.50
2017-07-31T01:06:36.014Z,3.20
2017-07-31T01:07:33.278Z,2.90
2017-07-31T01:08:30.661Z,2.80
2017-07-31T01:09:27.918Z,2.40
2017-07-31T01:10:25.292Z,3.00
2017-07-31T01:11:22.579Z,3.00
2017-07-31T01:12:20.005Z,2.60
2017-07-31T01:13:17.266Z,3.00
2017-07-31T01:14:14.640Z,3.40
2017-07-31T01:15:11.927Z,2.80
2017-07-31T01:16:09.228Z,3.00
2017-07-31T01:17:06.540Z,2.70
2017-07-31T01:18:03.836Z,3.40
2017-07-31T01:19:01.132Z,3.20
2017-07-31T01:19:58.412Z,2.30
2017-07-31T01:20:55.693Z,2.60
2017-07-31T01:21:53.228Z,2.70
2017-07-31T01:22:50.504Z,2.70
2017-07-31T01:23:47.882Z,3.30
2017-07-31T01:24:45.640Z,2.70
2017-07-31T01:25:43.005Z,2.70
2017-07-31T01:26:40.296Z,3.20
2017-07-31T01:27:37.679Z,2.70
2017-07-31T01:28:35.002Z,2.80
2017-07-31T01:29:32.324Z,3.20
2017-07-31T01:30:29.618Z,2.90
2017-07-31T01:31:27.045Z,2.60
2017-07-31T01:32:24.326Z,3.10
2017-07-31T01:33:21.716Z,2.70
2017-07-31T01:34:19.076Z,2.50
2017-07-31T01:35:16.401Z,2.80
2017-07-31T01:36:13.705Z,2.60
2017-07-31T01:37:11.058Z,2.40
2017-07-31T01:38:08.309Z,3.20
2017-07-31T01:39:05.600Z,2.40
2017-07-31T01:40:02.880Z,3.20
2017-07-31T01:41:00.174Z,2.40
2017-07-31T01:41:57.453Z,2.50
2017-07-31T01:42:54.804Z,2.80
2017-07-31T01:43:52.064Z,2.80
2017-07-31T01:44:49.376Z,2.90
2017-07-31T01:45:46.641Z,2.30
2017-07-31T01:46:43.944Z,3.30
2017-07-31T01:47:41.269Z,2.30
2017-07-31T01:48:38.656Z,2.70
2017-07-31T01:49:35.943Z,3.00
2017-07-31T01:50:33.246Z,2.50
2017-07-31T01:51:30.597Z,3.00
2017-07-31T01:52:27.950Z,3.20
2017-07-31T01:53:25.238Z,2.70
2017-07-31T01:54:22.517Z,3.00
2017-07-31T01:55:19.811Z,2.90
2017-07-31T01:56:17.124Z,2.90
2017-07-31T01:57:14.412Z,3.30
2017-07-31T01:58:11.749Z,2.90
2017-07-31T01:59:09.043Z,2.90
2017-07-31T02:00:06.337Z,3.00
2017-07-31T02:01:03.581Z,2.70
2017-07-31T02:02:00.854Z,2.70
2017-07-31T02:02:58.202Z,2.40
2017-07-31T02:03:55.520Z,2.40
2017-07-31T02:04:52.801Z,3.30
2017-07-31T02:05:50.079Z,2.60
2017-07-31T02:06:47.347Z,3.00
2017-07-31T02:07:44.643Z,2.80
2017-07-31T02:08:41.913Z,3.00
2017-07-31T02:09:39.241Z,2.90
2017-07-31T02:10:36.508Z,3.00
2017-07-31T02:11:33.877Z,2.90
2017-07-31T02:12:31.165Z,2.30
2017-07-31T02:13:28.552Z,2.60
2017-07-31T02:14:25.824Z,2.20
2017-07-31T02:15:23.141Z,2.50
2017-07-31T02:16:20.477Z,2.40
2017-07-31T02:17:17.816Z,2.50
2017-07-31T02:18:15.108Z,2.30
2017-07-31T02:19:12.521Z,2.60
2017-07-31T02:20:09.849Z,2.50
2017-07-31T02:21:07.216Z,2.50
2017-07-31T02:22:04.541Z,3.20
2017-07-31T02:23:02.029Z,2.70
2017-07-31T02:23:59.341Z,2.20
2017-07-31T02:24:56.689Z,2.50
2017-07-31T02:25:53.997Z,2.70
2017-07-31T02:26:51.312Z,2.70
2017-07-31T02:27:48.592Z,2.50
2017-07-31T02:28:45.897Z,2.70
2017-07-31T02:29:43.131Z,2.70
2017-07-31T02:30:40.476Z,2.90
2017-07-31T02:31:37.737Z,2.70
2017-07-31T02:32:35.011Z,2.20
2017-07-31T02:33:32.385Z,3.00
2017-07-31T02:34:29.829Z,3.00
2017-07-31T02:35:27.100Z,2.90
2017-07-31T02:36:24.426Z,3.10
2017-07-31T02:37:21.864Z,3.00
2017-07-31T02:38:19.222Z,3.40
2017-07-31T02:39:16.536Z,2.40
2017-07-31T02:40:13.976Z,2.80
2017-07-31T02:41:11.272Z,2.80
2017-07-31T02:42:08.606Z,2.70
2017-07-31T02:43:05.874Z,2.50
2017-07-31T02:44:03.186Z,3.00
2017-07-31T02:45:00.579Z,2.80
2017-07-31T02:45:57.953Z,2.70
2017-07-31T02:46:55.253Z,3.00
2017-07-31T02:47:52.536Z,3.50
2017-07-31T02:48:49.812Z,3.30
2017-07-31T02:49:47.121Z,2.60
2017-07-31T02:50:44.429Z,2.00
2017-07-31T02:51:41.775Z,2.90
2017-07-31T02:52:39.049Z,3.00
2017-07-31T02:53:36.418Z,3.20
2017-07-31T02:54:33.680Z,3.00
2017-07-31T02:55:30.978Z,2.40
2017-07-31T02:56:28.284Z,2.40
2017-07-31T02:57:25.676Z,3.00
2017-07-31T02:58:22.951Z,2.80
2017-07-31T02:59:20.294Z,2.70
2017-07-31T03:00:17.538Z,2.80
2017-07-31T03:01:14.814Z,3.00
2017-07-31T03:02:12.112Z,2.50
2017-07-31T03:03:09.445Z,2.80
2017-07-31T03:04:06.706Z,3.40
2017-07-31T03:05:03.989Z,2.80
2017-07-31T03:06:01.337Z,2.90
2017-07-31T03:06:58.661Z,2.80
2017-07-31T03:07:55.924Z,2.90
2017-07-31T03:08:53.232Z,3.00
2017-07-31T03:09:50.561Z,2.90
2017-07-31T03:10:47.903Z,2.80
2017-07-31T03:11:45.175Z,3.10
2017-07-31T03:12:42.472Z,2.80
2017-07-31T03:13:39.797Z,2.90
2017-07-31T03:14:37.096Z,3.00
2017-07-31T03:15:34.417Z,2.90
2017-07-31T03:16:31.749Z,3.10
2017-07-31T03:17:29.020Z,2.90
2017-07-31T03:18:26.342Z,3.20
2017-07-31T03:19:23.663Z,3.50
2017-07-31T03:20:20.989Z,3.00
2017-07-31T03:21:18.287Z,2.80
2017-07-31T03:22:15.617Z,3.00
2017-07-31T03:23:12.944Z,2.80
2017-07-31T03:24:10.317Z,3.80
2017-07-31T03:25:07.634Z,3.40
2017-07-31T03:26:04.971Z,3.00
2017-07-31T03:27:02.273Z,2.90
2017-07-31T03:27:59.564Z,3.10
2017-07-31T03:28:56.887Z,3.40
2017-07-31T03:29:54.236Z,2.90
2017-07-31T03:30:51.552Z,2.90
2017-07-31T03:31:48.877Z,3.30
2017-07-31T03:32:46.205Z,3.10
2017-07-31T03:33:43.568Z,2.80
2017-07-31T03:34:40.861Z,2.50
2017-07-31T03:35:38.191Z,2.90
2017-07-31T03:36:35.517Z,2.90
2017-07-31T03:37:32.895Z,3.00
2017-07-31T03:38:30.171Z,2.60
2017-07-31T03:39:27.531Z,3.00
2017-07-31T03:40:24.869Z,3.00
2017-07-31T03:41:22.216Z,3.00
2017-07-31T03:42:19.501Z,2.90
2017-07-31T03:43:16.894Z,3.30
2017-07-31T03:44:14.150Z,3.10
2017-07-31T03:45:11.489Z,2.90
2017-07-31T03:46:08.811Z,3.00
2017-07-31T03:48:15.172Z,3.10
2017-07-31T03:49:12.451Z,3.50
2017-07-31T03:50:09.843Z,2.20
2017-07-31T03:51:07.229Z,3.60
2017-07-31T03:52:04.535Z,3.20
2017-07-31T03:53:01.881Z,2.90
2017-07-31T03:53:59.200Z,2.70
2017-07-31T03:54:56.493Z,2.90
2017-07-31T03:55:53.809Z,3.20
2017-07-31T03:56:51.112Z,2.90
2017-07-31T03:57:48.420Z,3.90
2017-07-31T03:58:45.761Z,2.40
2017-07-31T03:59:43.036Z,2.60
2017-07-31T04:00:40.357Z,2.70
2017-07-31T04:01:37.630Z,2.60
2017-07-31T04:02:34.930Z,2.50
2017-07-31T04:03:32.189Z,3.30
2017-07-31T04:04:29.521Z,2.60
2017-07-31T04:05:26.796Z,2.70
2017-07-31T04:06:24.144Z,2.80
2017-07-31T04:07:21.428Z,2.80
2017-07-31T04:08:18.730Z,2.60
2017-07-31T04:09:16.376Z,2.60
2017-07-31T04:10:14.288Z,3.20
2017-07-31T04:11:11.655Z,2.30
2017-07-31T04:12:08.990Z,2.50
2017-07-31T04:13:06.478Z,2.80
2017-07-31T04:14:04.968Z,2.60
2017-07-31T04:15:02.262Z,2.50
2017-07-31T04:15:59.604Z,3.00
2017-07-31T04:16:56.841Z,2.60
2017-07-31T04:17:54.198Z,2.30
2017-07-31T04:18:51.491Z,3.00
2017-07-31T04:19:48.792Z,3.00
2017-07-31T04:20:46.110Z,3.00
2017-07-31T04:21:43.460Z,2.40
2017-07-31T04:22:40.735Z,2.70
2017-07-31T04:23:38.068Z,2.40
2017-07-31T04:24:35.347Z,2.70
2017-07-31T04:25:32.633Z,2.70
2017-07-31T04:26:29.978Z,2.60
2017-07-31T04:27:27.318Z,3.00
2017-07-31T04:28:24.693Z,2.80
2017-07-31T04:29:21.972Z,3.20
2017-07-31T04:30:19.237Z,3.00
2017-07-31T04:31:16.634Z,2.70
2017-07-31T04:32:13.996Z,2.90
2017-07-31T04:33:11.334Z,2.50
2017-07-31T04:34:08.659Z,2.90
2017-07-31T04:35:05.941Z,2.70
2017-07-31T04:36:03.238Z,2.60
2017-07-31T04:37:00.611Z,3.20
2017-07-31T04:37:57.869Z,2.80
2017-07-31T04:38:55.176Z,2.90
2017-07-31T04:39:52.439Z,3.00
2017-07-31T04:40:49.923Z,2.90
2017-07-31T04:41:47.256Z,3.10
2017-07-31T04:42:44.598Z,2.70
2017-07-31T04:43:41.923Z,2.60
2017-07-31T04:44:39.261Z,2.70
2017-07-31T04:45:36.561Z,2.50
2017-07-31T04:46:33.853Z,2.40
2017-07-31T04:47:31.136Z,3.50
2017-07-31T04:48:28.456Z,2.80
2017-07-31T04:49:25.708Z,2.80
2017-07-31T04:50:23.018Z,2.50
2017-07-31T04:51:20.320Z,3.20
2017-07-31T04:52:17.656Z,2.70
2017-07-31T04:53:15.050Z,2.90
2017-07-31T04:54:12.352Z,3.00
2017-07-31T04:55:09.673Z,2.80
2017-07-31T04:56:06.962Z,2.90
2017-07-31T04:57:04.276Z,3.00
2017-07-31T04:58:01.588Z,2.70
2017-07-31T04:58:59.075Z,2.80
2017-07-31T04:59:56.395Z,3.80
2017-07-31T05:00:53.654Z,2.70
2017-07-31T05:01:50.994Z,2.90
2017-07-31T05:02:48.292Z,3.60
2017-07-31T05:03:45.612Z,3.30
2017-07-31T05:04:42.924Z,2.90
2017-07-31T05:05:40.249Z,3.00
2017-07-31T05:06:37.544Z,3.50
2017-07-31T05:07:34.888Z,2.90
2017-07-31T05:08:32.177Z,3.20
2017-07-31T05:09:29.661Z,2.80
2017-07-31T05:10:26.985Z,3.70
2017-07-31T05:11:24.435Z,3.30
2017-07-31T05:12:21.813Z,3.00
2017-07-31T05:13:19.150Z,3.30
2017-07-31T05:14:16.445Z,3.20
2017-07-31T05:15:13.763Z,3.50
2017-07-31T05:16:11.057Z,3.30
2017-07-31T05:17:08.399Z,3.10
2017-07-31T05:18:06.307Z,2.90
2017-07-31T05:19:03.872Z,2.90
2017-07-31T05:20:01.156Z,3.80
2017-07-31T05:20:58.441Z,3.10
2017-07-31T05:21:55.759Z,3.10
2017-07-31T05:22:53.110Z,3.20
2017-07-31T05:23:50.579Z,3.10
2017-07-31T05:24:47.886Z,3.70
2017-07-31T05:25:45.197Z,3.20
2017-07-31T05:26:42.483Z,2.80
2017-07-31T05:27:39.780Z,2.90
2017-07-31T05:28:37.061Z,3.40
2017-07-31T05:29:34.472Z,3.50
2017-07-31T05:30:31.774Z,3.00
2017-07-31T05:31:29.085Z,3.30
2017-07-31T05:32:26.671Z,3.20
2017-07-31T05:33:24.043Z,3.30
2017-07-31T05:34:21.369Z,3.10
2017-07-31T05:35:18.676Z,3.10
2017-07-31T05:36:15.965Z,3.20
2017-07-31T05:37:13.301Z,3.10
2017-07-31T05:38:10.622Z,2.90
2017-07-31T05:39:07.965Z,2.90
2017-07-31T05:40:05.317Z,2.90
2017-07-31T05:41:02.672Z,3.00
2017-07-31T05:41:59.972Z,3.10
2017-07-31T05:42:57.289Z,3.40
2017-07-31T05:43:54.603Z,2.80
2017-07-31T05:44:51.898Z,3.40
2017-07-31T05:45:49.227Z,3.40
2017-07-31T05:46:46.685Z,3.60
2017-07-31T05:47:44.067Z,4.40
2017-07-31T05:48:41.416Z,3.40
2017-07-31T05:49:38.747Z,3.70
2017-07-31T05:50:36.063Z,3.70
2017-07-31T05:51:33.458Z,4.00
2017-07-31T05:52:30.739Z,4.00
2017-07-31T05:53:28.152Z,4.00
2017-07-31T05:54:25.405Z,3.60
2017-07-31T05:55:22.694Z,3.30
2017-07-31T05:56:20.004Z,4.00
2017-07-31T05:57:17.280Z,3.30
2017-07-31T05:58:14.516Z,3.10
2017-07-31T05:59:11.820Z,3.90
2017-07-31T06:00:09.067Z,3.50
2017-07-31T06:01:06.404Z,3.90
2017-07-31T06:02:03.674Z,3.20
2017-07-31T06:03:00.964Z,3.70
2017-07-31T06:03:58.208Z,3.50
2017-07-31T06:04:55.510Z,3.30
2017-07-31T06:05:52.797Z,3.70
2017-07-31T06:06:50.112Z,4.20
2017-07-31T06:07:47.517Z,3.40
2017-07-31T06:08:44.907Z,3.90
2017-07-31T06:09:42.168Z,3.60
2017-07-31T06:10:39.484Z,3.50
2017-07-31T06:11:37.043Z,3.40
2017-07-31T06:12:34.357Z,3.60
2017-07-31T06:13:31.690Z,3.50
2017-07-31T06:14:29.016Z,4.20
2017-07-31T06:15:26.321Z,4.10
2017-07-31T06:16:23.588Z,3.80
2017-07-31T06:17:20.872Z,3.90
2017-07-31T06:18:18.162Z,3.90
2017-07-31T06:19:15.462Z,4.40
2017-07-31T06:20:12.779Z,4.10
2017-07-31T06:21:10.058Z,4.20
2017-07-31T06:22:07.369Z,3.90
2017-07-31T06:23:04.645Z,4.10
2017-07-31T06:24:02.092Z,3.30
2017-07-31T06:24:59.403Z,3.90
2017-07-31T06:25:56.749Z,3.40
2017-07-31T06:26:54.120Z,3.70
2017-07-31T06:27:51.479Z,4.00
2017-07-31T06:28:48.737Z,4.50
2017-07-31T06:29:46.108Z,3.80
2017-07-31T06:30:43.365Z,3.80
2017-07-31T06:31:40.659Z,4.20
2017-07-31T06:32:37.946Z,3.80
2017-07-31T06:33:35.253Z,4.30
2017-07-31T06:34:32.540Z,3.70
2017-07-31T06:35:29.877Z,4.30
2017-07-31T06:36:27.190Z,3.60
2017-07-31T06:37:24.498Z,3.90
2017-07-31T06:38:21.806Z,4.00
2017-07-31T06:39:19.117Z,4.40
2017-07-31T06:40:16.432Z,3.90
2017-07-31T06:41:13.793Z,4.30
2017-07-31T06:42:11.068Z,3.70
2017-07-31T06:43:08.381Z,4.00
2017-07-31T06:44:05.720Z,3.70
2017-07-31T06:45:03.043Z,3.20
2017-07-31T06:46:00.293Z,4.10
2017-07-31T06:46:57.660Z,3.60
2017-07-31T06:47:54.868Z,4.20
2017-07-31T06:48:52.120Z,3.80
2017-07-31T06:49:49.388Z,4.80
2017-07-31T06:50:46.675Z,4.50
2017-07-31T06:51:43.935Z,3.60
2017-07-31T06:52:41.207Z,4.90
2017-07-31T06:53:38.433Z,3.90
2017-07-31T06:54:35.730Z,4.40
2017-07-31T06:55:33.034Z,4.40
2017-07-31T06:56:30.372Z,4.20
2017-07-31T06:57:27.620Z,4.60
2017-07-31T06:58:24.896Z,4.10
2017-07-31T06:59:22.165Z,4.30
2017-07-31T07:00:19.489Z,4.00
2017-07-31T07:01:16.773Z,3.80
2017-07-31T07:02:14.046Z,3.50
2017-07-31T07:03:11.293Z,4.10
2017-07-31T07:04:08.565Z,2.90
2017-07-31T07:05:05.807Z,3.10
2017-07-31T07:06:03.112Z,3.80
2017-07-31T07:07:00.414Z,2.90
2017-07-31T07:07:59.760Z,3.90
2017-07-31T07:08:56.999Z,3.20
2017-07-31T07:09:54.341Z,4.90
2017-07-31T07:10:51.632Z,3.90
2017-07-31T07:11:48.968Z,3.30
2017-07-31T07:12:46.228Z,4.00
2017-07-31T07:13:43.517Z,3.60
2017-07-31T07:14:40.793Z,3.70
2017-07-31T07:15:38.100Z,3.80
2017-07-31T07:16:35.347Z,3.20
2017-07-31T07:17:32.606Z,3.70
2017-07-31T07:18:29.865Z,3.60
2017-07-31T07:19:27.159Z,3.20
2017-07-31T07:20:24.414Z,3.20
2017-07-31T07:21:21.751Z,3.40
2017-07-31T07:22:19.026Z,3.60
2017-07-31T07:23:16.318Z,3.20
2017-07-31T07:24:13.595Z,3.50
2017-07-31T07:25:10.880Z,3.60
2017-07-31T07:26:08.154Z,3.30
2017-07-31T07:27:05.456Z,3.20
2017-07-31T07:28:02.706Z,3.60
2017-07-31T07:29:00.045Z,2.90
2017-07-31T07:29:57.360Z,3.30
2017-07-31T07:30:54.740Z,3.50
2017-07-31T07:31:52.034Z,3.10
2017-07-31T07:32:49.332Z,3.30
2017-07-31T07:33:46.601Z,3.30
2017-07-31T07:34:43.867Z,3.30
2017-07-31T07:35:41.122Z,2.80
2017-07-31T07:36:38.498Z,2.60
2017-07-31T07:37:35.748Z,2.90
2017-07-31T07:38:33.013Z,3.10
2017-07-31T07:39:30.316Z,3.30
2017-07-31T07:40:27.586Z,3.10
2017-07-31T07:41:24.862Z,3.20
2017-07-31T07:42:22.165Z,3.50
2017-07-31T07:43:19.411Z,3.00
2017-07-31T07:44:16.707Z,2.60
2017-07-31T07:45:14.047Z,2.60
2017-07-31T07:46:11.332Z,3.30
2017-07-31T07:47:13.821Z,2.50
2017-07-31T07:48:11.084Z,2.50
2017-07-31T07:49:08.325Z,2.70
2017-07-31T07:50:05.647Z,2.70
2017-07-31T07:51:02.910Z,2.10
2017-07-31T07:52:00.203Z,2.50
2017-07-31T07:52:57.465Z,2.00
2017-07-31T07:53:54.753Z,2.90
2017-07-31T07:54:52.009Z,2.10
2017-07-31T07:55:49.273Z,2.50
2017-07-31T07:56:46.566Z,2.70
2017-07-31T07:57:43.844Z,2.80
2017-07-31T07:58:41.093Z,2.20
2017-07-31T07:59:38.369Z,2.50
2017-07-31T08:00:35.645Z,3.20
2017-07-31T08:01:32.942Z,2.50
2017-07-31T08:02:30.196Z,2.50
2017-07-31T08:03:27.491Z,2.60
2017-07-31T08:04:24.742Z,2.50
2017-07-31T08:05:22.045Z,2.40
2017-07-31T08:06:19.289Z,2.80
2017-07-31T08:07:16.660Z,2.50
2017-07-31T08:08:13.896Z,2.80
2017-07-31T08:09:11.180Z,2.50
2017-07-31T08:10:08.398Z,2.70
2017-07-31T08:11:05.679Z,2.20
2017-07-31T08:12:02.948Z,2.70
2017-07-31T08:13:00.224Z,1.90
2017-07-31T08:13:57.486Z,2.30
2017-07-31T08:14:54.757Z,2.10
2017-07-31T08:15:52.025Z,1.50
2017-07-31T08:16:49.320Z,2.00
2017-07-31T08:17:46.647Z,2.40
2017-07-31T08:18:43.932Z,1.70
2017-07-31T08:19:41.190Z,2.20
2017-07-31T08:20:38.459Z,2.30
2017-07-31T08:21:35.779Z,2.60
2017-07-31T08:22:33.213Z,2.20
2017-07-31T08:23:30.488Z,1.60
2017-07-31T08:24:27.902Z,1.90
2017-07-31T08:25:25.210Z,2.10
2017-07-31T08:26:22.511Z,2.30
2017-07-31T08:27:19.857Z,2.30
2017-07-31T08:28:17.181Z,2.20
2017-07-31T08:29:14.520Z,2.10
2017-07-31T08:30:11.846Z,1.70
2017-07-31T08:31:09.122Z,2.20
2017-07-31T08:32:06.408Z,2.00
2017-07-31T08:33:03.695Z,2.20
2017-07-31T08:34:01.000Z,2.10
2017-07-31T08:34:58.267Z,2.10
2017-07-31T08:35:55.643Z,1.90
2017-07-31T08:36:52.913Z,2.00
2017-07-31T08:37:50.305Z,1.80
2017-07-31T08:38:47.576Z,1.90
2017-07-31T08:39:44.849Z,1.60
2017-07-31T08:40:42.101Z,2.30
2017-07-31T08:41:39.393Z,1.60
2017-07-31T08:42:36.711Z,1.90
2017-07-31T08:43:33.991Z,2.00
2017-07-31T08:44:31.293Z,2.10
2017-07-31T08:45:28.617Z,1.30
2017-07-31T08:46:25.877Z,1.90
2017-07-31T08:47:23.172Z,1.70
2017-07-31T08:48:20.455Z,1.90
2017-07-31T08:49:17.736Z,1.70
2017-07-31T08:50:14.995Z,1.70
2017-07-31T08:51:12.272Z,1.60
2017-07-31T08:52:09.533Z,1.60
2017-07-31T08:53:06.841Z,1.50
2017-07-31T08:54:04.140Z,1.90
2017-07-31T08:55:01.426Z,1.50
2017-07-31T08:55:58.731Z,1.70
2017-07-31T08:56:56.029Z,1.80
2017-07-31T08:57:53.329Z,1.60
2017-07-31T08:58:50.636Z,1.70
2017-07-31T08:59:47.884Z,1.60
2017-07-31T09:00:45.196Z,1.50
2017-07-31T09:01:42.459Z,1.90
2017-07-31T09:02:39.744Z,1.40
2017-07-31T09:03:37.013Z,2.00
2017-07-31T09:04:34.284Z,1.60
2017-07-31T09:05:31.545Z,1.70
2017-07-31T09:06:28.824Z,1.50
2017-07-31T09:07:26.084Z,1.90
2017-07-31T09:08:23.409Z,1.50
2017-07-31T09:09:20.682Z,1.50
2017-07-31T09:10:17.973Z,1.70
2017-07-31T09:11:15.233Z,1.50
2017-07-31T09:12:12.521Z,1.60
2017-07-31T09:13:09.744Z,2.10
2017-07-31T09:14:07.046Z,1.40
2017-07-31T09:15:04.362Z,1.60
2017-07-31T09:16:01.651Z,1.70
2017-07-31T09:16:58.951Z,1.80
2017-07-31T09:17:56.257Z,2.20
2017-07-31T09:18:53.533Z,1.60
2017-07-31T09:19:50.840Z,1.70
2017-07-31T09:20:48.129Z,1.70
2017-07-31T09:21:45.570Z,1.80
2017-07-31T09:22:42.825Z,1.50
2017-07-31T09:23:40.125Z,1.60
2017-07-31T09:24:37.410Z,1.80
2017-07-31T09:25:34.669Z,1.60
2017-07-31T09:26:31.911Z,1.60
2017-07-31T09:27:29.197Z,1.60
2017-07-31T09:28:26.464Z,1.70
2017-07-31T09:29:23.745Z,2.40
2017-07-31T09:30:21.008Z,1.60
2017-07-31T09:31:18.304Z,1.60
2017-07-31T09:32:15.601Z,1.40
2017-07-31T09:33:12.905Z,1.70
2017-07-31T09:34:10.196Z,1.70
2017-07-31T09:35:07.472Z,1.60
2017-07-31T09:36:04.749Z,2.00
2017-07-31T09:37:02.080Z,1.60
2017-07-31T09:37:59.356Z,1.80
2017-07-31T09:38:56.677Z,1.40
2017-07-31T09:39:53.956Z,1.50
2017-07-31T09:40:51.263Z,2.10
2017-07-31T09:41:48.605Z,1.60
2017-07-31T09:42:45.852Z,2.00
2017-07-31T09:43:43.105Z,1.60
2017-07-31T09:44:40.503Z,1.80
2017-07-31T09:45:37.769Z,2.40
2017-07-31T09:46:35.173Z,1.90
2017-07-31T09:47:32.483Z,1.90
2017-07-31T09:48:29.809Z,3.00
2017-07-31T09:49:27.084Z,2.90
2017-07-31T09:50:24.369Z,1.90
2017-07-31T09:51:21.615Z,1.90
2017-07-31T09:52:18.909Z,2.30
2017-07-31T09:53:16.179Z,2.00
2017-07-31T09:54:13.439Z,2.30
2017-07-31T09:55:10.737Z,1.70
2017-07-31T09:56:08.011Z,1.80
2017-07-31T09:57:05.257Z,2.10
2017-07-31T09:58:02.532Z,2.10
2017-07-31T09:58:59.772Z,1.90
2017-07-31T09:59:57.077Z,1.50
2017-07-31T10:00:54.339Z,1.80
2017-07-31T10:01:51.634Z,2.10
2017-07-31T10:02:48.875Z,1.70
2017-07-31T10:03:46.133Z,2.10
2017-07-31T10:04:43.437Z,2.10
2017-07-31T10:05:40.723Z,1.70
2017-07-31T10:06:37.985Z,1.50
2017-07-31T10:07:35.264Z,2.60
2017-07-31T10:08:32.506Z,2.00
2017-07-31T10:09:29.809Z,1.80
2017-07-31T10:10:27.069Z,2.30
2017-07-31T10:11:24.825Z,2.10
2017-07-31T10:12:22.066Z,1.80
2017-07-31T10:13:19.377Z,1.70
2017-07-31T10:14:16.640Z,2.00
2017-07-31T10:15:13.937Z,1.80
2017-07-31T10:16:11.186Z,2.20
2017-07-31T10:17:08.464Z,2.40
2017-07-31T10:18:05.752Z,1.60
2017-07-31T10:19:03.040Z,1.60
2017-07-31T10:20:00.289Z,2.10
2017-07-31T10:20:57.596Z,1.70
2017-07-31T10:21:54.831Z,2.10
2017-07-31T10:22:52.119Z,1.80
2017-07-31T10:23:49.394Z,2.00
2017-07-31T10:24:46.701Z,2.50
2017-07-31T10:25:43.981Z,1.60
2017-07-31T10:26:41.264Z,1.90
2017-07-31T10:27:38.528Z,1.80
2017-07-31T10:28:35.884Z,1.70
2017-07-31T10:29:33.136Z,1.60
2017-07-31T10:30:30.513Z,2.00
2017-07-31T10:31:27.772Z,2.50
2017-07-31T10:32:25.069Z,1.40
2017-07-31T10:33:22.350Z,2.00
2017-07-31T10:34:19.623Z,1.70
2017-07-31T10:35:16.912Z,1.30
2017-07-31T10:36:14.292Z,1.80
2017-07-31T10:37:11.558Z,1.60
2017-07-31T10:38:08.820Z,2.00
2017-07-31T10:39:06.076Z,1.90
2017-07-31T10:40:03.355Z,2.00
2017-07-31T10:41:00.616Z,2.00
2017-07-31T10:41:57.889Z,1.60
2017-07-31T10:42:55.172Z,1.70
2017-07-31T10:43:52.443Z,2.00
2017-07-31T10:44:49.689Z,1.90
2017-07-31T10:45:47.041Z,1.80
2017-07-31T10:46:44.336Z,1.90
2017-07-31T10:47:41.606Z,1.80
2017-07-31T10:48:38.900Z,1.80
2017-07-31T10:49:36.156Z,1.80
2017-07-31T10:50:33.380Z,1.60
2017-07-31T10:51:30.658Z,2.10
2017-07-31T10:52:27.905Z,1.90
2017-07-31T10:53:25.174Z,1.70
2017-07-31T10:54:22.436Z,1.70
2017-07-31T10:55:20.374Z,1.90
2017-07-31T10:56:17.643Z,2.10
2017-07-31T10:57:14.982Z,1.70
2017-07-31T10:58:12.204Z,2.50
2017-07-31T10:59:09.452Z,1.40
2017-07-31T11:00:06.737Z,1.90
2017-07-31T11:01:04.027Z,1.70
2017-07-31T11:02:01.328Z,1.50
2017-07-31T11:02:58.596Z,1.40
2017-07-31T11:03:55.849Z,2.00
2017-07-31T11:04:53.130Z,1.60
2017-07-31T11:05:50.385Z,1.60
2017-07-31T11:06:47.699Z,1.80
2017-07-31T11:07:44.933Z,1.70
2017-07-31T11:08:42.216Z,1.80
2017-07-31T11:09:39.462Z,2.20
2017-07-31T11:10:36.737Z,1.90
2017-07-31T11:11:34.020Z,1.60
2017-07-31T11:12:31.384Z,1.80
2017-07-31T11:13:28.626Z,1.90
2017-07-31T11:14:25.904Z,1.60
2017-07-31T11:15:23.160Z,2.60
2017-07-31T11:16:20.451Z,2.10
2017-07-31T11:17:17.704Z,2.00
2017-07-31T11:18:15.072Z,2.20
2017-07-31T11:19:12.324Z,1.60
2017-07-31T11:20:09.585Z,1.70
2017-07-31T11:21:06.831Z,1.90
2017-07-31T11:22:04.134Z,1.70
2017-07-31T11:23:01.385Z,1.80
2017-07-31T11:23:58.646Z,1.50
2017-07-31T11:24:55.893Z,1.80
2017-07-31T11:25:53.161Z,1.70
2017-07-31T11:26:50.445Z,2.20
2017-07-31T11:27:47.723Z,1.70
2017-07-31T11:28:44.970Z,1.70
2017-07-31T11:29:42.249Z,1.90
2017-07-31T11:30:39.492Z,1.80
2017-07-31T11:31:36.768Z,1.70
2017-07-31T11:32:34.032Z,1.50
2017-07-31T11:33:31.296Z,2.00
2017-07-31T11:34:28.528Z,2.00
2017-07-31T11:35:25.800Z,1.90
2017-07-31T11:36:23.036Z,1.90
2017-07-31T11:37:20.316Z,1.80
2017-07-31T11:38:17.565Z,1.80
2017-07-31T11:39:14.844Z,1.90
2017-07-31T11:40:12.149Z,2.10
2017-07-31T11:41:09.416Z,1.90
2017-07-31T11:42:06.661Z,1.70
2017-07-31T11:43:03.944Z,1.80
2017-07-31T11:44:01.189Z,2.10
2017-07-31T11:44:58.493Z,2.40
2017-07-31T11:45:55.792Z,2.20
2017-07-31T11:46:53.082Z,2.00
2017-07-31T11:47:50.354Z,1.80
2017-07-31T11:48:47.617Z,1.70
2017-07-31T11:49:44.873Z,1.90
2017-07-31T11:50:42.156Z,2.10
2017-07-31T11:51:39.405Z,1.90
2017-07-31T11:52:36.701Z,1.70
2017-07-31T11:53:33.988Z,2.10
2017-07-31T11:54:31.260Z,2.40
2017-07-31T11:55:28.512Z,1.80
2017-07-31T11:56:25.793Z,2.10
2017-07-31T11:57:23.040Z,2.00
2017-07-31T11:58:20.346Z,1.80
2017-07-31T11:59:17.608Z,1.80
2017-07-31T12:00:14.884Z,2.10
2017-07-31T12:01:12.151Z,2.10
2017-07-31T12:02:09.421Z,1.90
2017-07-31T12:03:06.715Z,2.20
2017-07-31T12:04:03.984Z,2.30
2017-07-31T12:05:01.225Z,2.50
2017-07-31T12:05:58.704Z,2.00
2017-07-31T12:06:55.975Z,2.10
2017-07-31T12:07:53.398Z,2.10
2017-07-31T12:08:50.650Z,2.30
2017-07-31T12:09:47.929Z,2.10
2017-07-31T12:10:45.169Z,2.00
2017-07-31T12:11:42.438Z,2.30
2017-07-31T12:12:39.680Z,2.20
2017-07-31T12:13:36.992Z,2.10
2017-07-31T12:14:34.252Z,2.00
2017-07-31T12:15:31.517Z,2.10
2017-07-31T12:16:28.758Z,2.10
2017-07-31T12:17:26.050Z,1.90
2017-07-31T12:18:23.353Z,1.90
2017-07-31T12:19:20.625Z,2.60
2017-07-31T12:20:17.868Z,2.30
2017-07-31T12:21:15.130Z,2.00
2017-07-31T12:22:12.376Z,2.10
2017-07-31T12:23:09.666Z,2.00
2017-07-31T12:24:06.963Z,2.00
2017-07-31T12:25:04.238Z,1.90
2017-07-31T12:26:01.492Z,2.30
2017-07-31T12:26:58.784Z,2.20
2017-07-31T12:27:56.033Z,2.50
2017-07-31T12:28:53.329Z,2.10
2017-07-31T12:29:50.608Z,2.30
2017-07-31T12:30:47.891Z,2.20
2017-07-31T12:31:45.133Z,2.30
2017-07-31T12:32:42.858Z,2.00
2017-07-31T12:33:40.128Z,1.90
2017-07-31T12:34:37.416Z,2.00
2017-07-31T12:35:34.653Z,2.00
2017-07-31T12:36:31.921Z,2.10
2017-07-31T12:37:29.169Z,2.30
2017-07-31T12:38:26.440Z,2.10
2017-07-31T12:39:23.704Z,2.20
2017-07-31T12:40:20.998Z,1.80
2017-07-31T12:41:18.276Z,1.90
2017-07-31T12:42:15.568Z,3.00
2017-07-31T12:43:12.824Z,2.30
2017-07-31T12:44:10.137Z,2.10